Time;durP1;ratioP1;P1;durP2;ratioP2;P2;SDS_P1;SDS_P2;PMS_P1;PMS_P2;Temp;Humidity;BMP_temperature;BMP_pressure;BME280_temperature;BME280_humidity;BME280_pressure;Samples;Min_cycle;Max_cycle;Signal;HPM_P1;HPM_P2
2023/11/01 00:00:22;;;;;;;13.80;4.43;;;13.60;99.90;;;;;;4963015;28;20019;-69
2023/11/01 00:02:47;;;;;;;12.63;4.60;;;13.60;99.90;;;;;;4965433;28;20038;-70
2023/11/01 00:05:13;;;;;;;16.38;5.13;;;13.60;99.90;;;;;;4965947;28;20031;-69
2023/11/01 00:07:39;;;;;;;18.33;4.88;;;13.60;99.90;;;;;;4965867;28;20460;-71
2023/11/01 00:10:05;;;;;;;19.60;5.82;;;13.60;99.90;;;;;;4965517;28;20033;-70
2023/11/01 00:12:31;;;;;;;15.55;4.75;;;13.70;99.90;;;;;;4963025;28;20033;-72
2023/11/01 00:14:57;;;;;;;10.55;3.75;;;13.60;99.90;;;;;;4964992;28;20392;-72
2023/11/01 00:17:23;;;;;;;13.30;4.63;;;13.70;99.90;;;;;;4960817;28;20038;-70
2023/11/01 00:19:49;;;;;;;18.63;4.57;;;13.70;99.90;;;;;;4963855;28;20027;-71
2023/11/01 00:22:15;;;;;;;12.70;3.83;;;13.70;99.90;;;;;;4962810;28;20480;-72
2023/11/01 00:24:40;;;;;;;14.00;4.40;;;13.70;99.90;;;;;;4965315;28;20031;-70
2023/11/01 00:27:06;;;;;;;11.50;3.78;;;13.70;99.90;;;;;;4965185;28;20058;-69
2023/11/01 00:29:32;;;;;;;14.60;4.13;;;13.70;99.90;;;;;;4962594;28;20031;-69
2023/11/01 00:31:57;;;;;;;13.38;4.18;;;13.60;99.90;;;;;;4965604;28;20480;-70
2023/11/01 00:34:23;;;;;;;20.23;5.07;;;13.60;99.90;;;;;;4962808;28;20532;-69
2023/11/01 00:36:49;;;;;;;13.68;4.78;;;13.60;99.90;;;;;;4965600;28;20027;-69
2023/11/01 00:39:15;;;;;;;14.18;4.20;;;13.60;99.90;;;;;;4965595;28;20049;-70
2023/11/01 00:41:41;;;;;;;9.73;3.75;;;13.60;99.90;;;;;;4966170;28;20034;-70
2023/11/01 00:44:07;;;;;;;12.48;4.15;;;13.50;99.90;;;;;;4963070;28;20035;-70
2023/11/01 00:46:33;;;;;;;12.77;3.80;;;13.50;99.90;;;;;;4964977;28;20027;-70
2023/11/01 00:48:59;;;;;;;13.43;5.00;;;13.50;99.90;;;;;;4963873;28;20031;-69
2023/11/01 00:51:24;;;;;;;11.35;3.72;;;13.50;99.90;;;;;;4965304;28;20031;-71
2023/11/01 00:53:50;;;;;;;10.30;3.85;;;13.50;99.90;;;;;;4965055;28;20507;-69
2023/11/01 00:56:16;;;;;;;13.40;3.78;;;13.50;99.90;;;;;;4965468;28;20511;-70
2023/11/01 00:58:42;;;;;;;9.25;3.65;;;13.50;99.90;;;;;;4964432;28;20038;-70
2023/11/01 01:01:08;;;;;;;13.90;3.80;;;13.50;99.90;;;;;;4964817;28;20023;-74
2023/11/01 01:03:33;;;;;;;12.70;3.40;;;13.50;99.90;;;;;;4961655;28;20109;-69
2023/11/01 01:05:59;;;;;;;11.50;3.65;;;13.50;99.90;;;;;;4964879;28;20054;-70
2023/11/01 01:08:25;;;;;;;12.65;3.72;;;13.40;99.90;;;;;;4965270;28;20153;-70
2023/11/01 01:10:51;;;;;;;12.18;3.47;;;13.50;99.90;;;;;;4965389;28;20114;-71
2023/11/01 01:13:16;;;;;;;11.68;3.35;;;13.40;99.90;;;;;;4966426;28;20023;-70
2023/11/01 01:15:42;;;;;;;13.63;4.32;;;13.40;99.90;;;;;;4962283;28;20499;-70
2023/11/01 01:18:08;;;;;;;12.30;3.45;;;13.40;99.90;;;;;;4965232;28;20035;-69
2023/11/01 01:20:33;;;;;;;12.95;3.63;;;13.40;99.90;;;;;;4966562;28;21069;-70
2023/11/01 01:22:59;;;;;;;15.75;4.07;;;13.40;99.90;;;;;;4966818;28;20053;-69
2023/11/01 01:25:25;;;;;;;13.68;3.50;;;13.30;99.90;;;;;;4969204;28;20484;-70
2023/11/01 01:27:50;;;;;;;13.63;3.40;;;13.40;99.90;;;;;;4966743;28;20476;-69
2023/11/01 01:30:16;;;;;;;12.25;4.03;;;13.30;99.90;;;;;;4966457;28;20070;-70
2023/11/01 01:32:41;;;;;;;8.50;3.03;;;13.30;99.90;;;;;;4968414;28;20030;-73
2023/11/01 01:35:07;;;;;;;10.65;3.13;;;13.30;99.90;;;;;;4968985;28;20244;-71
2023/11/01 01:37:33;;;;;;;10.05;3.47;;;13.30;99.90;;;;;;4967824;28;20472;-69
2023/11/01 01:39:59;;;;;;;11.88;3.22;;;13.30;99.90;;;;;;4966850;28;20035;-69
2023/11/01 01:42:25;;;;;;;13.40;3.50;;;13.30;99.90;;;;;;4965654;28;20053;-72
2023/11/01 01:44:50;;;;;;;9.82;3.28;;;13.40;99.90;;;;;;4968339;28;20031;-72
2023/11/01 01:47:17;;;;;;;12.00;3.08;;;13.30;99.90;;;;;;4967958;28;20042;-69
2023/11/01 01:49:43;;;;;;;16.60;4.80;;;13.40;99.90;;;;;;4967635;28;20023;-69
2023/11/01 01:52:09;;;;;;;10.80;4.13;;;13.40;99.90;;;;;;4968110;28;20081;-71
2023/11/01 01:54:35;;;;;;;11.98;3.30;;;13.30;99.90;;;;;;4965591;28;20023;-69
2023/11/01 01:57:01;;;;;;;10.60;3.17;;;13.30;99.90;;;;;;4967101;28;20042;-71
2023/11/01 01:59:27;;;;;;;8.80;2.90;;;13.20;99.90;;;;;;4967971;28;20027;-69
2023/11/01 02:01:55;;;;;;;9.27;3.47;;;13.20;99.90;;;;;;4968139;28;20072;-69
2023/11/01 02:04:22;;;;;;;10.52;3.40;;;13.20;99.90;;;;;;4965598;28;20034;-70
2023/11/01 02:06:47;;;;;;;11.90;2.95;;;13.30;99.90;;;;;;4965897;28;20035;-71
2023/11/01 02:09:16;;;;;;;6.85;3.45;;;13.30;99.90;;;;;;4967715;28;20428;-69
2023/11/01 02:11:45;;;;;;;9.20;3.30;;;13.30;99.90;;;;;;4963236;28;20058;-70
2023/11/01 02:14:12;;;;;;;10.25;2.97;;;13.30;99.90;;;;;;4968369;28;20034;-70
2023/11/01 02:16:40;;;;;;;8.38;2.97;;;13.40;99.90;;;;;;4967374;28;20035;-69
2023/11/01 02:19:10;;;;;;;7.22;3.13;;;13.40;99.90;;;;;;4964967;28;20111;-69
2023/11/01 02:21:36;;;;;;;11.57;3.30;;;13.40;99.90;;;;;;4967681;28;20015;-69
2023/11/01 02:24:01;;;;;;;9.27;3.05;;;13.50;99.90;;;;;;4966390;28;20224;-69
2023/11/01 02:26:27;;;;;;;6.18;2.80;;;13.40;99.90;;;;;;4966031;28;20019;-71
2023/11/01 02:28:53;;;;;;;6.03;2.60;;;13.40;99.90;;;;;;4966542;28;20118;-69
2023/11/01 02:31:18;;;;;;;11.30;2.75;;;13.50;99.90;;;;;;4967418;28;20392;-70
2023/11/01 02:33:44;;;;;;;8.65;2.67;;;13.50;99.90;;;;;;4968248;28;20468;-69
2023/11/01 02:36:10;;;;;;;7.10;3.17;;;13.40;99.90;;;;;;4966858;28;20027;-70
2023/11/01 02:38:35;;;;;;;12.43;3.58;;;13.30;99.90;;;;;;4964752;28;20563;-70
2023/11/01 02:41:01;;;;;;;7.38;2.83;;;13.20;99.90;;;;;;4967396;28;20026;-69
2023/11/01 02:43:27;;;;;;;7.72;2.63;;;13.30;99.90;;;;;;4968001;28;20494;-69
2023/11/01 02:45:53;;;;;;;8.85;2.83;;;13.30;99.90;;;;;;4966920;28;20085;-69
2023/11/01 02:48:19;;;;;;;6.07;2.55;;;13.30;99.90;;;;;;4966258;28;20097;-70
2023/11/01 02:50:45;;;;;;;10.20;2.88;;;13.30;99.90;;;;;;4967570;28;20022;-69
2023/11/01 02:53:10;;;;;;;4.28;2.78;;;13.30;99.90;;;;;;4966741;28;20038;-70
2023/11/01 02:55:36;;;;;;;9.43;2.45;;;13.30;99.90;;;;;;4967381;28;20034;-70
2023/11/01 02:58:02;;;;;;;6.55;2.78;;;13.30;99.90;;;;;;4967201;28;20050;-69
2023/11/01 03:00:28;;;;;;;10.45;3.05;;;13.30;99.90;;;;;;4967344;28;20055;-68
2023/11/01 03:02:54;;;;;;;8.07;2.65;;;13.30;99.90;;;;;;4967156;28;20507;-69
2023/11/01 03:05:20;;;;;;;4.65;2.38;;;13.30;99.90;;;;;;4965349;28;20037;-70
2023/11/01 03:07:46;;;;;;;6.78;2.80;;;13.40;99.90;;;;;;4981282;28;20023;-68
2023/11/01 03:10:12;;;;;;;6.22;2.97;;;13.40;99.90;;;;;;4965697;28;20166;-68
2023/11/01 03:12:40;;;;;;;6.88;2.90;;;13.40;99.90;;;;;;4967114;28;20034;-71
2023/11/01 03:15:07;;;;;;;7.22;2.95;;;13.30;99.90;;;;;;4965964;28;20035;-69
2023/11/01 03:17:34;;;;;;;6.90;2.70;;;13.40;99.90;;;;;;4963068;28;20054;-69
2023/11/01 03:20:01;;;;;;;8.35;3.28;;;13.50;99.90;;;;;;4964739;28;20244;-68
2023/11/01 03:22:26;;;;;;;5.80;2.50;;;13.40;99.90;;;;;;4966399;28;20413;-69
2023/11/01 03:24:52;;;;;;;6.53;2.95;;;13.40;99.90;;;;;;4964949;28;20081;-68
2023/11/01 03:27:18;;;;;;;5.55;2.97;;;13.40;99.90;;;;;;4966028;28;20081;-68
2023/11/01 03:29:43;;;;;;;5.85;3.15;;;13.40;99.90;;;;;;4965679;28;20038;-70
2023/11/01 03:32:09;;;;;;;5.00;2.90;;;13.40;99.90;;;;;;4965183;28;20027;-69
2023/11/01 03:34:34;;;;;;;3.00;2.33;;;13.50;99.90;;;;;;4967252;28;20369;-69
2023/11/01 03:37:00;;;;;;;6.35;3.05;;;13.60;99.90;;;;;;4965771;28;20026;-68
2023/11/01 03:39:26;;;;;;;7.80;3.17;;;13.60;99.90;;;;;;4966936;28;20465;-69
2023/11/01 03:41:52;;;;;;;9.23;4.03;;;13.50;99.90;;;;;;4963238;28;20034;-68
2023/11/01 03:44:18;;;;;;;7.05;3.42;;;13.60;99.90;;;;;;4965340;28;20600;-72
2023/11/01 03:46:43;;;;;;;8.75;3.63;;;13.60;99.90;;;;;;4964908;28;20045;-70
2023/11/01 03:49:09;;;;;;;4.80;3.35;;;13.60;99.90;;;;;;4966693;28;20546;-71
2023/11/01 03:51:35;;;;;;;9.80;4.03;;;13.60;99.90;;;;;;4964497;28;20027;-68
2023/11/01 03:54:00;;;;;;;8.32;3.55;;;13.60;99.90;;;;;;4966988;28;20379;-69
2023/11/01 03:56:26;;;;;;;7.75;3.90;;;13.60;99.90;;;;;;4966702;28;20022;-69
2023/11/01 03:58:52;;;;;;;14.43;4.45;;;13.70;99.90;;;;;;4963259;28;20464;-68
2023/11/01 04:01:17;;;;;;;8.55;4.00;;;13.70;99.90;;;;;;4965626;28;20068;-69
2023/11/01 04:03:43;;;;;;;11.27;4.63;;;13.70;99.90;;;;;;4964271;28;20070;-68
2023/11/01 04:06:09;;;;;;;11.35;4.35;;;13.70;99.90;;;;;;4965458;28;20023;-69
2023/11/01 04:08:37;;;;;;;10.05;4.30;;;13.70;99.90;;;;;;4962172;28;20027;-69
2023/11/01 04:11:04;;;;;;;12.85;5.03;;;13.70;99.90;;;;;;4965601;28;20070;-69
2023/11/01 04:13:31;;;;;;;9.82;4.30;;;13.70;99.90;;;;;;4964145;28;20018;-68
2023/11/01 04:15:57;;;;;;;15.40;5.57;;;13.80;99.90;;;;;;4965947;28;20039;-69
2023/11/01 04:18:24;;;;;;;20.38;5.70;;;13.80;99.90;;;;;;4965038;28;20373;-72
2023/11/01 04:20:50;;;;;;;15.77;5.38;;;13.80;99.90;;;;;;4965150;28;20084;-69
2023/11/01 04:23:16;;;;;;;14.07;5.03;;;13.80;99.90;;;;;;4966529;28;20452;-69
2023/11/01 04:25:42;;;;;;;13.52;5.47;;;13.80;99.90;;;;;;4966373;28;20105;-69
2023/11/01 04:28:08;;;;;;;20.42;5.70;;;13.80;99.90;;;;;;4962803;28;20114;-69
2023/11/01 04:30:39;;;;;;;14.63;5.10;;;13.80;99.90;;;;;;4966525;28;20031;-70
2023/11/01 04:33:10;;;;;;;19.23;5.38;;;13.90;99.90;;;;;;4963956;28;20026;-69
2023/11/01 04:35:36;;;;;;;20.02;6.25;;;13.80;99.90;;;;;;4966383;28;20019;-68
2023/11/01 04:38:02;;;;;;;21.60;5.80;;;13.90;99.90;;;;;;4963358;28;20029;-68
2023/11/01 04:40:28;;;;;;;18.70;5.65;;;13.90;99.90;;;;;;4966061;28;20023;-69
2023/11/01 04:42:53;;;;;;;21.45;5.35;;;13.90;99.90;;;;;;4966353;28;20636;-69
2023/11/01 04:45:19;;;;;;;14.95;5.13;;;13.90;99.90;;;;;;4967240;28;20514;-70
2023/11/01 04:47:46;;;;;;;21.60;5.18;;;13.90;99.90;;;;;;4965337;28;20042;-69
2023/11/01 04:50:14;;;;;;;20.98;5.50;;;13.90;99.90;;;;;;4962916;28;20035;-69
2023/11/01 04:52:41;;;;;;;26.20;5.43;;;13.90;99.90;;;;;;4967681;28;20022;-69
2023/11/01 04:55:11;;;;;;;20.52;5.50;;;13.90;99.90;;;;;;4967081;28;22172;-74
2023/11/01 04:57:37;;;;;;;16.63;4.95;;;13.90;99.90;;;;;;4968927;28;20109;-68
2023/11/01 05:00:11;;;;;;;19.08;5.35;;;14.00;99.90;;;;;;4970368;28;20054;-69
2023/11/01 05:02:39;;;;;;;22.67;5.13;;;13.90;99.90;;;;;;4967073;28;20089;-69
2023/11/01 05:05:06;;;;;;;14.82;4.90;;;13.90;99.90;;;;;;4969800;28;20023;-69
2023/11/01 05:07:42;;;;;;;21.63;4.68;;;13.90;99.90;;;;;;4968950;28;20030;-72
2023/11/01 05:10:07;;;;;;;18.48;4.75;;;13.90;99.90;;;;;;4965848;28;20042;-69
2023/11/01 05:12:33;;;;;;;18.10;5.13;;;14.00;99.90;;;;;;4969152;28;20019;-69
2023/11/01 05:15:00;;;;;;;22.98;5.25;;;14.00;99.90;;;;;;4967509;28;20058;-69
2023/11/01 05:17:26;;;;;;;20.35;5.22;;;14.00;99.90;;;;;;4968361;28;20082;-69
2023/11/01 05:19:52;;;;;;;18.75;4.72;;;14.00;99.90;;;;;;4966610;28;20066;-70
2023/11/01 05:22:17;;;;;;;22.52;4.68;;;14.00;99.90;;;;;;4968955;28;20506;-70
2023/11/01 05:24:47;;;;;;;20.60;5.32;;;13.90;99.90;;;;;;4969042;28;20395;-70
2023/11/01 05:27:14;;;;;;;69.95;57.85;;;13.90;99.90;;;;;;4966303;28;20110;-71
2023/11/01 05:29:40;;;;;;;18.80;9.45;;;14.00;99.90;;;;;;4967236;28;20019;-73
2023/11/01 05:32:06;;;;;;;23.45;5.32;;;14.00;99.90;;;;;;4968911;28;20353;-69
2023/11/01 05:34:32;;;;;;;18.60;4.65;;;14.00;99.90;;;;;;4968749;28;20023;-70
2023/11/01 05:36:57;;;;;;;18.52;4.53;;;14.00;99.90;;;;;;4968909;28;20476;-70
2023/11/01 05:39:24;;;;;;;18.27;4.35;;;13.90;99.90;;;;;;4967996;28;20026;-70
2023/11/01 05:41:52;;;;;;;16.20;5.82;;;13.90;99.90;;;;;;4965931;28;20423;-70
2023/11/01 05:44:21;;;;;;;21.90;4.47;;;13.90;99.90;;;;;;4967679;28;20038;-73
2023/11/01 05:46:47;;;;;;;19.83;4.22;;;13.80;99.90;;;;;;4967135;28;20037;-69
2023/11/01 05:49:14;;;;;;;13.88;4.32;;;13.90;99.90;;;;;;4967687;28;20038;-69
2023/11/01 05:51:40;;;;;;;32.35;5.45;;;13.80;99.90;;;;;;4967124;28;20018;-70
2023/11/01 05:54:06;;;;;;;25.92;4.68;;;13.80;99.90;;;;;;4965159;28;20105;-72
2023/11/01 05:56:32;;;;;;;19.50;5.00;;;13.80;99.90;;;;;;4968391;28;20102;-69
2023/11/01 05:58:57;;;;;;;25.70;4.65;;;13.80;99.90;;;;;;4964763;28;20041;-75
2023/11/01 06:01:24;;;;;;;22.67;4.40;;;13.70;99.90;;;;;;4968380;28;20026;-69
2023/11/01 06:03:50;;;;;;;19.52;4.20;;;13.70;99.90;;;;;;4964184;28;20046;-70
2023/11/01 06:06:17;;;;;;;20.33;4.47;;;13.70;99.90;;;;;;4966265;28;20026;-70
2023/11/01 06:08:43;;;;;;;19.05;4.40;;;13.70;99.90;;;;;;4964597;28;20043;-73
2023/11/01 06:11:08;;;;;;;12.63;3.63;;;13.80;99.90;;;;;;4968551;28;20030;-69
2023/11/01 06:13:34;;;;;;;22.20;4.30;;;13.70;99.90;;;;;;4965190;28;20090;-74
2023/11/01 06:16:04;;;;;;;16.40;4.05;;;13.80;99.90;;;;;;4967292;28;20074;-71
2023/11/01 06:18:33;;;;;;;20.35;4.07;;;13.70;99.90;;;;;;4967553;28;20031;-72
2023/11/01 06:20:59;;;;;;;16.23;4.28;;;13.70;99.90;;;;;;4968309;28;20058;-70
2023/11/01 06:23:25;;;;;;;14.35;3.85;;;13.60;99.90;;;;;;4968426;28;20090;-70
2023/11/01 06:25:50;;;;;;;19.60;4.60;;;13.60;99.90;;;;;;4966871;28;20173;-69
2023/11/01 06:28:16;;;;;;;20.08;4.30;;;13.70;99.90;;;;;;4965836;28;20023;-70
2023/11/01 06:30:42;;;;;;;19.10;4.43;;;13.70;99.90;;;;;;4967300;28;20482;-71
2023/11/01 06:33:08;;;;;;;17.52;4.28;;;13.70;99.90;;;;;;4968390;28;20466;-74
2023/11/01 06:35:34;;;;;;;13.43;3.78;;;13.60;99.90;;;;;;4963864;28;20026;-72
2023/11/01 06:38:00;;;;;;;21.05;5.20;;;13.60;99.90;;;;;;4981558;28;20039;-70
2023/11/01 06:40:26;;;;;;;19.30;4.75;;;13.70;99.90;;;;;;4966068;28;20030;-71
2023/11/01 06:42:53;;;;;;;14.90;4.20;;;13.70;99.90;;;;;;4968060;28;20035;-71
2023/11/01 06:45:19;;;;;;;15.50;3.95;;;13.70;99.90;;;;;;4964187;28;20473;-70
2023/11/01 06:47:44;;;;;;;23.13;4.82;;;13.60;99.90;;;;;;4966352;28;20023;-70
2023/11/01 06:50:10;;;;;;;20.55;4.22;;;13.70;99.90;;;;;;4966852;28;20435;-72
2023/11/01 06:52:35;;;;;;;20.77;4.70;;;13.70;99.90;;;;;;4966019;28;20038;-69
2023/11/01 06:55:01;;;;;;;22.20;4.45;;;13.80;99.90;;;;;;4967216;28;20526;-69
2023/11/01 06:57:27;;;;;;;18.13;4.10;;;13.70;99.90;;;;;;4967519;28;20078;-70
2023/11/01 06:59:52;;;;;;;12.05;3.88;;;13.70;99.90;;;;;;4963652;28;20025;-72
2023/11/01 07:02:18;;;;;;;18.08;4.13;;;13.70;99.90;;;;;;4966709;28;20097;-70
2023/11/01 07:04:44;;;;;;;16.90;3.92;;;13.70;99.90;;;;;;4967576;28;20060;-71
2023/11/01 07:07:10;;;;;;;19.02;4.35;;;13.70;99.90;;;;;;4963432;28;20026;-69
2023/11/01 07:09:36;;;;;;;22.23;4.55;;;13.70;99.90;;;;;;4966650;28;20026;-71
2023/11/01 07:12:02;;;;;;;21.88;5.25;;;13.70;99.90;;;;;;4967423;28;20092;-70
2023/11/01 07:14:28;;;;;;;17.38;3.65;;;13.70;99.90;;;;;;4968014;28;20023;-73
2023/11/01 07:16:54;;;;;;;18.75;4.07;;;13.70;99.90;;;;;;4965063;28;20081;-72
2023/11/01 07:19:19;;;;;;;11.35;4.43;;;13.80;99.90;;;;;;4964566;28;20045;-72
2023/11/01 07:21:47;;;;;;;14.55;4.65;;;13.80;99.90;;;;;;4965894;28;20027;-72
2023/11/01 07:24:13;;;;;;;20.88;4.28;;;13.80;99.90;;;;;;4963180;28;20038;-71
2023/11/01 07:26:39;;;;;;;19.45;4.03;;;13.80;99.90;;;;;;4966760;28;20019;-71
2023/11/01 07:29:05;;;;;;;17.17;4.45;;;13.70;99.90;;;;;;4967218;28;20502;-71
2023/11/01 07:31:30;;;;;;;18.33;3.60;;;13.70;99.90;;;;;;4963245;28;20027;-70
2023/11/01 07:33:56;;;;;;;19.33;3.85;;;13.70;99.90;;;;;;4966561;28;20035;-74
2023/11/01 07:36:22;;;;;;;12.80;3.75;;;13.80;99.90;;;;;;4963596;28;20027;-75
2023/11/01 07:38:48;;;;;;;15.43;3.83;;;13.70;99.90;;;;;;4965787;28;20391;-74
2023/11/01 07:41:16;;;;;;;19.88;3.92;;;13.70;99.90;;;;;;4966932;28;22134;-73
2023/11/01 07:43:42;;;;;;;13.70;3.30;;;13.70;99.90;;;;;;4966444;28;20065;-71
2023/11/01 07:46:08;;;;;;;12.30;3.70;;;13.70;99.90;;;;;;4963333;28;20468;-72
2023/11/01 07:48:35;;;;;;;15.13;3.50;;;13.80;99.90;;;;;;4964889;28;20046;-75
2023/11/01 07:51:07;;;;;;;13.00;3.53;;;13.90;99.90;;;;;;4966938;28;20023;-73
2023/11/01 07:53:35;;;;;;;21.08;3.70;;;13.80;99.90;;;;;;4963412;28;20027;-72
2023/11/01 07:56:01;;;;;;;17.95;3.47;;;13.80;99.90;;;;;;4966523;28;20031;-71
2023/11/01 07:58:29;;;;;;;17.88;3.28;;;13.80;99.90;;;;;;4964140;28;20089;-74
2023/11/01 08:00:54;;;;;;;18.00;3.08;;;13.90;99.90;;;;;;4965540;28;20035;-70
2023/11/01 08:03:20;;;;;;;12.00;3.67;;;13.90;99.90;;;;;;4963572;28;20787;-74
2023/11/01 08:05:46;;;;;;;16.45;3.38;;;13.90;99.90;;;;;;4965691;28;20094;-73
2023/11/01 08:08:11;;;;;;;17.98;3.38;;;13.90;99.90;;;;;;4966165;28;20034;-70
2023/11/01 08:10:37;;;;;;;12.15;3.75;;;14.00;99.90;;;;;;4965237;28;20030;-72
2023/11/01 08:13:03;;;;;;;11.18;2.67;;;14.00;99.90;;;;;;4965607;28;20137;-74
2023/11/01 08:15:33;;;;;;;16.13;3.25;;;14.00;99.90;;;;;;4967016;28;20027;-70
2023/11/01 08:18:02;;;;;;;13.98;3.65;;;14.00;99.90;;;;;;4963971;28;20506;-73
2023/11/01 08:20:29;;;;;;;15.90;3.03;;;14.00;99.90;;;;;;4966374;28;20130;-70
2023/11/01 08:22:56;;;;;;;12.95;3.15;;;14.00;99.90;;;;;;4964323;28;20507;-72
2023/11/01 08:25:23;;;;;;;20.33;3.65;;;14.10;99.90;;;;;;4965517;28;20122;-71
2023/11/01 08:27:49;;;;;;;14.50;2.80;;;14.10;99.90;;;;;;4968322;28;20021;-70
2023/11/01 08:30:15;;;;;;;14.80;3.42;;;14.00;99.90;;;;;;4969171;28;20030;-72
2023/11/01 08:32:41;;;;;;;12.07;3.47;;;14.10;99.90;;;;;;4969263;28;20070;-71
2023/11/01 08:35:10;;;;;;;15.70;3.13;;;14.20;99.90;;;;;;4985384;28;20049;-71
2023/11/01 08:37:36;;;;;;;14.02;3.15;;;14.10;99.90;;;;;;4969873;28;20023;-73
2023/11/01 08:40:02;;;;;;;9.05;2.33;;;14.10;99.90;;;;;;4967775;28;20030;-71
2023/11/01 08:42:30;;;;;;;10.98;2.28;;;14.20;99.90;;;;;;4983684;28;20033;-72
2023/11/01 08:44:57;;;;;;;14.10;2.70;;;14.20;99.90;;;;;;4967404;28;20838;-70
2023/11/01 08:47:42;;;;;;;16.00;3.25;;;14.20;99.90;;;;;;4968233;28;20031;-72
2023/11/01 08:50:12;;;;;;;13.68;2.53;;;14.20;99.90;;;;;;4969154;28;20113;-72
2023/11/01 08:52:39;;;;;;;10.93;2.67;;;14.30;99.90;;;;;;4968050;28;20019;-73
2023/11/01 08:55:07;;;;;;;12.65;3.15;;;14.30;99.90;;;;;;4966518;28;20030;-72
2023/11/01 08:57:32;;;;;;;14.48;2.78;;;14.30;99.90;;;;;;4968525;28;20486;-73
2023/11/01 08:59:58;;;;;;;11.15;2.58;;;14.30;99.90;;;;;;4969158;28;20035;-71
2023/11/01 09:02:27;;;;;;;14.60;2.92;;;14.40;99.90;;;;;;4965674;28;20058;-72
2023/11/01 09:04:54;;;;;;;11.38;2.88;;;14.50;99.90;;;;;;4969168;28;20495;-71
2023/11/01 09:07:20;;;;;;;8.75;2.35;;;14.60;99.90;;;;;;4966503;28;20463;-73
2023/11/01 09:09:45;;;;;;;14.50;3.13;;;14.60;99.90;;;;;;4968193;28;20035;-71
2023/11/01 09:12:11;;;;;;;10.90;2.72;;;14.70;99.90;;;;;;4967950;28;20129;-72
2023/11/01 09:14:37;;;;;;;11.57;3.15;;;14.70;99.90;;;;;;4968559;28;20023;-71
2023/11/01 09:17:03;;;;;;;9.52;2.75;;;14.80;99.90;;;;;;4964334;28;20031;-74
2023/11/01 09:19:28;;;;;;;12.93;3.08;;;14.70;99.90;;;;;;4968694;28;20057;-70
2023/11/01 09:21:55;;;;;;;9.85;3.42;;;14.70;99.90;;;;;;4969152;28;20066;-71
2023/11/01 09:24:20;;;;;;;14.45;2.78;;;14.60;99.90;;;;;;4969361;28;20038;-70
2023/11/01 09:26:46;;;;;;;12.65;3.33;;;14.70;99.90;;;;;;4964121;28;20474;-72
2023/11/01 09:29:12;;;;;;;10.98;2.72;;;14.70;99.90;;;;;;4966960;28;20460;-72
2023/11/01 09:31:38;;;;;;;14.98;3.08;;;14.60;99.90;;;;;;4968619;28;20515;-72
2023/11/01 09:34:04;;;;;;;9.90;3.35;;;14.70;99.90;;;;;;4968629;28;20118;-72
2023/11/01 09:36:30;;;;;;;9.98;2.60;;;14.80;99.90;;;;;;4969532;28;20050;-71
2023/11/01 09:38:56;;;;;;;10.13;2.50;;;14.80;99.90;;;;;;4963612;28;20495;-73
2023/11/01 09:41:39;;;;;;;17.42;3.20;;;14.80;99.90;;;;;;4967366;28;20012;-75
2023/11/01 09:44:07;;;;;;;4.78;2.10;;;14.90;99.90;;;;;;4965342;28;20502;-71
2023/11/01 09:46:34;;;;;;;9.25;2.65;;;14.90;99.90;;;;;;4965874;28;20023;-70
2023/11/01 09:49:00;;;;;;;18.73;2.90;;;15.00;99.90;;;;;;4967590;28;20054;-71
2023/11/01 09:51:27;;;;;;;13.25;2.22;;;14.90;99.90;;;;;;4965906;28;20026;-71
2023/11/01 09:53:52;;;;;;;5.63;2.40;;;15.00;99.90;;;;;;4982190;28;20035;-71
2023/11/01 09:56:21;;;;;;;9.85;2.90;;;15.00;99.90;;;;;;4968313;28;20085;-71
2023/11/01 09:58:46;;;;;;;9.55;1.98;;;15.00;99.90;;;;;;4966416;28;20428;-70
2023/11/01 10:01:12;;;;;;;7.60;2.90;;;15.20;99.90;;;;;;4965183;28;20041;-73
2023/11/01 10:03:38;;;;;;;9.65;2.53;;;15.20;99.90;;;;;;4965535;28;20041;-69
2023/11/01 10:06:04;;;;;;;11.15;2.40;;;15.20;99.90;;;;;;4968470;28;20027;-70
2023/11/01 10:08:30;;;;;;;10.55;2.22;;;15.20;99.90;;;;;;4968016;28;20034;-71
2023/11/01 10:11:02;;;;;;;10.50;2.10;;;15.30;99.90;;;;;;4962022;28;20023;-68
2023/11/01 10:13:31;;;;;;;8.27;3.00;;;15.20;99.90;;;;;;4964211;28;20030;-70
2023/11/01 10:15:56;;;;;;;11.20;2.25;;;15.20;99.90;;;;;;4967678;28;20035;-70
2023/11/01 10:18:22;;;;;;;11.15;2.38;;;15.10;99.90;;;;;;4965323;28;20119;-71
2023/11/01 10:20:48;;;;;;;10.52;2.35;;;15.10;99.90;;;;;;4966798;28;20038;-69
2023/11/01 10:23:14;;;;;;;10.77;2.58;;;15.20;99.90;;;;;;4965803;28;20500;-70
2023/11/01 10:25:44;;;;;;;21.00;2.90;;;15.20;99.90;;;;;;4967892;28;20121;-73
2023/11/01 10:28:16;;;;;;;5.80;2.30;;;15.30;99.90;;;;;;4966651;28;20034;-68
2023/11/01 10:30:45;;;;;;;12.15;2.80;;;15.50;99.90;;;;;;4964175;28;20037;-76
2023/11/01 10:33:14;;;;;;;8.75;2.58;;;15.50;99.90;;;;;;4967894;28;20035;-74
2023/11/01 10:35:39;;;;;;;6.60;2.00;;;15.60;99.90;;;;;;4967444;28;20113;-75
2023/11/01 10:38:05;;;;;;;10.52;2.28;;;15.60;99.90;;;;;;4967755;28;20109;-72
2023/11/01 10:40:31;;;;;;;13.95;2.30;;;15.60;99.90;;;;;;4963994;28;20073;-73
2023/11/01 10:43:02;;;;;;;12.20;2.13;;;15.80;99.90;;;;;;4966004;28;20034;-77
2023/11/01 10:45:29;;;;;;;7.70;2.05;;;15.80;99.90;;;;;;4966954;28;20039;-73
2023/11/01 10:47:55;;;;;;;10.30;1.92;;;15.80;99.90;;;;;;4966348;28;20634;-72
2023/11/01 10:50:22;;;;;;;10.95;2.13;;;15.80;99.90;;;;;;4963628;28;20081;-73
2023/11/01 10:52:48;;;;;;;7.28;1.60;;;15.80;99.90;;;;;;4967579;28;20014;-73
2023/11/01 10:55:20;;;;;;;8.68;2.10;;;15.80;99.90;;;;;;4965298;28;20062;-73
2023/11/01 10:57:51;;;;;;;7.00;1.80;;;15.70;99.90;;;;;;4967133;28;20026;-71
2023/11/01 11:00:37;;;;;;;5.40;1.95;;;15.60;99.90;;;;;;4964627;28;20289;-70
2023/11/01 11:03:18;;;;;;;7.25;1.83;;;15.60;99.90;;;;;;4967094;28;20031;-71
2023/11/01 11:05:45;;;;;;;7.82;1.67;;;15.70;99.90;;;;;;4979541;28;20031;-71
2023/11/01 11:08:11;;;;;;;8.40;1.95;;;15.70;99.90;;;;;;4966504;28;20155;-68
2023/11/01 11:10:42;;;;;;;6.82;1.80;;;15.70;99.90;;;;;;4964465;28;20056;-70
2023/11/01 11:13:12;;;;;;;8.27;1.50;;;15.70;99.90;;;;;;4966573;28;20471;-72
2023/11/01 11:15:47;;;;;;;7.15;1.63;;;15.60;99.90;;;;;;4963347;28;20053;-78
2023/11/01 11:18:21;;;;;;;3.88;1.42;;;15.60;99.90;;;;;;4966264;28;20035;-73
2023/11/01 11:20:47;;;;;;;7.13;1.42;;;15.60;99.90;;;;;;4967591;28;20026;-74
2023/11/01 11:23:17;;;;;;;10.68;2.28;;;15.60;99.90;;;;;;4964963;28;20039;-73
2023/11/01 11:25:45;;;;;;;7.10;2.28;;;15.70;99.90;;;;;;4966017;28;20030;-72
2023/11/01 11:28:31;;;;;;;8.40;2.33;;;15.70;99.90;;;;;;4965104;28;20546;-70
2023/11/01 11:31:11;;;;;;;10.30;2.00;;;15.80;99.90;;;;;;4965532;28;20031;-72
2023/11/01 11:33:47;;;;;;;4.57;1.77;;;15.90;99.90;;;;;;4965977;28;20026;-70
2023/11/01 11:36:16;;;;;;;9.05;2.20;;;15.80;99.90;;;;;;4967382;28;20053;-73
2023/11/01 11:38:55;;;;;;;6.10;1.92;;;15.80;99.90;;;;;;4966055;28;20057;-69
2023/11/01 11:41:39;;;;;;;6.05;1.63;;;15.90;99.90;;;;;;4966517;28;20041;-71
2023/11/01 11:44:06;;;;;;;7.63;1.60;;;15.90;99.90;;;;;;4964277;28;20034;-71
2023/11/01 11:46:35;;;;;;;8.43;1.85;;;15.80;99.90;;;;;;4966731;28;20037;-71
2023/11/01 11:49:09;;;;;;;10.93;2.03;;;15.90;99.90;;;;;;4960665;28;20128;-74
2023/11/01 11:51:36;;;;;;;7.13;1.95;;;15.90;99.90;;;;;;4965681;28;20037;-75
2023/11/01 11:54:17;;;;;;;5.53;1.60;;;16.00;99.90;;;;;;4966790;28;20027;-73
2023/11/01 11:56:43;;;;;;;10.27;1.73;;;16.00;99.90;;;;;;4966504;28;20034;-70
2023/11/01 11:59:09;;;;;;;4.95;1.85;;;16.00;99.90;;;;;;4962989;28;20047;-70
2023/11/01 12:01:35;;;;;;;7.20;1.67;;;15.90;99.90;;;;;;4965778;28;20487;-71
2023/11/01 12:04:04;;;;;;;8.48;2.00;;;16.00;99.90;;;;;;4965416;28;20030;-74
2023/11/01 12:06:41;;;;;;;9.20;2.17;;;16.00;99.90;;;;;;4966848;28;20027;-74
2023/11/01 12:09:17;;;;;;;8.75;1.90;;;16.00;99.90;;;;;;4963415;28;20480;-69
2023/11/01 12:11:49;;;;;;;6.70;1.40;;;16.00;99.90;;;;;;4965411;28;20103;-71
2023/11/01 12:14:18;;;;;;;5.78;1.80;;;16.00;99.90;;;;;;4961897;28;20085;-74
2023/11/01 12:16:45;;;;;;;6.50;1.60;;;15.90;99.90;;;;;;4962045;28;20113;-69
2023/11/01 12:19:19;;;;;;;7.45;1.58;;;15.90;99.90;;;;;;4964002;28;20041;-73
2023/11/01 12:21:55;;;;;;;7.43;1.70;;;15.80;99.90;;;;;;4964918;28;20029;-75
2023/11/01 12:24:28;;;;;;;5.72;2.05;;;15.90;99.90;;;;;;4964278;28;20062;-70
2023/11/01 12:27:06;;;;;;;9.98;1.63;;;15.90;99.90;;;;;;4965941;28;20027;-72
2023/11/01 12:29:33;;;;;;;5.95;1.73;;;15.90;99.90;;;;;;4966457;28;20109;-70
2023/11/01 12:32:00;;;;;;;6.05;1.42;;;15.90;99.90;;;;;;4966191;28;20038;-70
2023/11/01 12:34:26;;;;;;;6.50;2.28;;;15.90;99.90;;;;;;4965666;28;20124;-70
2023/11/01 12:37:03;;;;;;;5.75;1.60;;;15.90;99.90;;;;;;4963357;28;20484;-72
2023/11/01 12:39:29;;;;;;;5.82;2.10;;;15.90;99.90;;;;;;4965950;28;20023;-74